Time;durP1;ratioP1;P1;durP2;ratioP2;P2;SDS_P1;SDS_P2;PMS_P1;PMS_P2;Temp;Humidity;BMP_temperature;BMP_pressure;BME280_temperature;BME280_humidity;BME280_pressure;Samples;Min_cycle;Max_cycle;Signal;HPM_P1;HPM_P2
2021/11/11 00:07:18;;;;;;;39.50;14.87;;;2.10;99.90;;;;;;6767979;88;20246;-83
2021/11/11 00:17:19;;;;;;;49.13;15.13;;;2.10;99.90;;;;;;6748696;88;20170;-83
2021/11/11 00:27:20;;;;;;;55.20;14.10;;;2.20;99.90;;;;;;6731418;88;20154;-84
2021/11/11 00:37:22;;;;;;;64.82;13.27;;;2.20;99.90;;;;;;6680351;89;20177;-84
2021/11/11 00:47:23;;;;;;;32.63;12.70;;;2.00;99.90;;;;;;6680447;89;20156;-83
2021/11/11 00:57:24;;;;;;;44.90;13.85;;;2.00;99.90;;;;;;6673214;89;20959;-84
2021/11/11 01:07:24;;;;;;;72.55;13.60;;;2.00;99.90;;;;;;6723219;88;20198;-82
2021/11/11 01:17:26;;;;;;;80.75;13.98;;;1.90;99.90;;;;;;6733940;88;20228;-83
2021/11/11 01:27:26;;;;;;;35.35;13.43;;;1.90;99.90;;;;;;6762442;88;20161;-83
2021/11/11 01:37:27;;;;;;;44.67;13.02;;;1.90;99.90;;;;;;6750570;88;20231;-84
2021/11/11 01:47:28;;;;;;;38.42;12.43;;;2.00;99.90;;;;;;6750545;88;20171;-83
2021/11/11 01:57:28;;;;;;;50.78;10.65;;;2.00;99.90;;;;;;6750419;88;20168;-83
2021/11/11 02:07:29;;;;;;;49.40;9.32;;;2.00;99.90;;;;;;6765648;88;20746;-82
2021/11/11 02:18:11;;;;;;;30.98;10.65;;;1.70;99.90;;;;;;6727948;77;20264;-81
2021/11/11 02:28:16;;;;;;;42.08;11.45;;;1.50;99.90;;;;;;6699558;89;21950;-80
2021/11/11 02:38:17;;;;;;;62.65;10.10;;;1.60;99.90;;;;;;6699080;89;20216;-81
2021/11/11 02:48:21;;;;;;;45.45;8.68;;;1.30;99.90;;;;;;6699494;89;20293;-80
2021/11/11 02:58:23;;;;;;;90.53;13.65;;;1.10;99.90;;;;;;6699445;89;20177;-80
2021/11/11 03:08:23;;;;;;;36.40;8.60;;;1.00;99.90;;;;;;6699150;89;20199;-80
2021/11/11 03:18:25;;;;;;;29.83;8.30;;;0.90;99.90;;;;;;6673872;89;20170;-80
2021/11/11 03:28:25;;;;;;;27.55;11.02;;;0.90;99.90;;;;;;6680054;89;20250;-80
2021/11/11 03:38:26;;;;;;;26.65;10.60;;;0.90;99.90;;;;;;6663242;89;20780;-80
2021/11/11 03:48:27;;;;;;;19.62;8.48;;;1.00;99.90;;;;;;6676456;89;21243;-80
2021/11/11 03:58:27;;;;;;;22.80;9.30;;;0.90;99.90;;;;;;6679444;89;21130;-79
2021/11/11 04:08:28;;;;;;;23.17;9.70;;;0.80;99.90;;;;;;6693220;88;20163;-80
2021/11/11 04:18:29;;;;;;;51.25;9.93;;;0.80;99.90;;;;;;6696764;88;20504;-80
2021/11/11 04:28:32;;;;;;;54.15;10.45;;;0.60;99.90;;;;;;6696604;88;20167;-80
2021/11/11 04:39:16;;;;;;;;;;;;;;;;;;;;;
2021/11/11 05:09:13;;;;;;;46.70;9.13;;;0.60;99.90;;;;;;6662100;89;20508;-79
2021/11/11 05:19:14;;;;;;;81.30;10.93;;;0.50;99.90;;;;;;6665738;89;20176;-80
2021/11/11 05:29:14;;;;;;;31.17;9.63;;;0.40;99.90;;;;;;6628510;89;20903;-80
2021/11/11 05:39:15;;;;;;;36.15;9.10;;;0.40;99.90;;;;;;6612408;90;20540;-80
2021/11/11 05:49:15;;;;;;;37.67;11.70;;;0.30;99.90;;;;;;6614048;89;20206;-80
2021/11/11 05:59:16;;;;;;;61.75;11.90;;;0.20;99.90;;;;;;6640623;89;20174;-79
2021/11/11 06:09:17;;;;;;;47.95;11.10;;;0.20;99.90;;;;;;6660730;89;20187;-79
2021/11/11 06:19:18;;;;;;;81.43;12.05;;;0.20;99.90;;;;;;6681124;89;20205;-80
2021/11/11 06:29:18;;;;;;;60.17;12.65;;;0.30;99.90;;;;;;6630865;89;20287;-79
2021/11/11 06:39:19;;;;;;;48.55;12.73;;;0.40;99.90;;;;;;6630488;89;20174;-80
2021/11/11 06:49:19;;;;;;;58.45;12.75;;;0.50;99.90;;;;;;6630587;89;20221;-84
2021/11/11 06:59:20;;;;;;;68.57;12.95;;;0.60;99.90;;;;;;6674052;89;20153;-80
2021/11/11 07:09:21;;;;;;;57.97;13.05;;;0.60;99.90;;;;;;6682561;89;20255;-83
2021/11/11 07:29:25;;;;;;;46.63;11.80;;;0.90;99.90;;;;;;6755789;88;20192;-81
2021/11/11 07:39:26;;;;;;;37.20;11.77;;;1.00;99.90;;;;;;6709922;88;20170;-80
2021/11/11 07:49:27;;;;;;;77.68;12.73;;;1.10;99.90;;;;;;6705892;88;20208;-79
2021/11/11 07:59:27;;;;;;;30.35;12.18;;;1.20;99.90;;;;;;6705073;88;20205;-79
2021/11/11 08:09:28;;;;;;;46.10;8.18;;;1.40;99.90;;;;;;6749161;88;20171;-80
2021/11/11 08:30:31;;;;;;;25.20;11.05;;;1.60;99.90;;;;;;6748133;88;20212;-80
2021/11/11 08:40:32;;;;;;;23.80;10.18;;;1.90;99.90;;;;;;6746782;88;20236;-80
2021/11/11 08:50:35;;;;;;;16.83;8.43;;;2.40;99.90;;;;;;6741992;88;20307;-79
2021/11/11 09:00:41;;;;;;;20.30;8.98;;;3.20;99.90;;;;;;6742080;88;20522;-81
2021/11/11 09:10:45;;;;;;;18.90;8.93;;;3.60;99.90;;;;;;6739277;88;20248;-81
2021/11/11 09:20:45;;;;;;;18.95;10.43;;;3.60;99.90;;;;;;6743178;88;20228;-80
2021/11/11 09:30:46;;;;;;;22.20;9.90;;;4.80;99.90;;;;;;6744385;88;20195;-81
2021/11/11 09:40:47;;;;;;;21.15;11.38;;;5.10;99.90;;;;;;6741064;88;20200;-83
2021/11/11 09:50:48;;;;;;;16.62;8.32;;;4.80;99.90;;;;;;6745632;88;20658;-82
2021/11/11 10:00:49;;;;;;;19.67;9.52;;;4.80;99.90;;;;;;6744606;88;20297;-81
2021/11/11 10:10:49;;;;;;;17.75;8.65;;;5.50;99.90;;;;;;6744695;88;20981;-82
2021/11/11 10:20:50;;;;;;;19.12;9.07;;;5.70;99.90;;;;;;6743713;88;20217;-82
2021/11/11 10:30:51;;;;;;;21.65;10.75;;;6.20;99.90;;;;;;6742667;88;20294;-81
2021/11/11 10:40:57;;;;;;;18.48;9.90;;;6.40;99.90;;;;;;6742542;88;20581;-82
2021/11/11 10:51:00;;;;;;;22.60;10.43;;;6.90;99.90;;;;;;6704495;88;20551;-82
2021/11/11 11:01:10;;;;;;;19.75;10.57;;;7.10;99.90;;;;;;6703270;88;20197;-82
2021/11/11 11:11:29;;;;;;;19.60;10.65;;;8.10;99.90;;;;;;6698523;88;20210;-82
2021/11/11 11:21:40;;;;;;;22.42;10.88;;;8.60;99.90;;;;;;6729900;88;20213;-81
2021/11/11 11:31:54;;;;;;;19.87;9.65;;;8.40;99.90;;;;;;6739759;88;20184;-82
2021/11/11 11:41:59;;;;;;;19.23;10.25;;;9.00;99.90;;;;;;6735754;88;20243;-80
2021/11/11 11:52:01;;;;;;;20.03;10.20;;;9.90;99.90;;;;;;6736296;88;20197;-80
2021/11/11 12:02:15;;;;;;;18.00;10.00;;;10.40;99.90;;;;;;6738410;88;20329;-79
2021/11/11 12:43:37;;;;;;;16.48;10.15;;;17.40;97.30;;;;;;6735358;88;20164;-80
2021/11/11 12:53:47;;;;;;;18.92;11.05;;;19.60;93.80;;;;;;6731353;88;20215;-80
2021/11/11 13:03:54;;;;;;;20.23;10.68;;;20.90;90.40;;;;;;6718912;88;20213;-81
2021/11/11 13:14:16;;;;;;;18.62;10.90;;;22.10;82.90;;;;;;6717860;88;20228;-80
2021/11/11 13:24:43;;;;;;;16.52;10.75;;;21.80;79.60;;;;;;6717235;88;20207;-80
2021/11/11 15:18:35;;;;;;;27.02;13.00;;;12.50;99.90;;;;;;6739758;88;20224;-78
2021/11/11 16:30:36;;;;;;;;;;;7.60;99.90;;;;;;6749119;88;20780;-81
2021/11/11 16:40:37;;;;;;;29.52;13.90;;;7.20;99.90;;;;;;6749340;88;20017;-80
2021/11/11 16:50:38;;;;;;;28.52;13.85;;;6.80;99.90;;;;;;6749813;88;20242;-80
2021/11/11 17:00:39;;;;;;;29.60;14.13;;;6.40;99.90;;;;;;6748885;88;20616;-79
2021/11/11 17:10:40;;;;;;;26.85;13.15;;;6.10;99.90;;;;;;6749333;88;20172;-80
2021/11/11 17:20:41;;;;;;;28.65;13.10;;;5.90;99.90;;;;;;6729527;88;20249;-80
2021/11/11 17:30:46;;;;;;;26.85;12.82;;;5.80;99.90;;;;;;6729966;88;20174;-80
2021/11/11 17:40:53;;;;;;;26.42;13.38;;;5.40;99.90;;;;;;6726054;88;20191;-81
2021/11/11 17:51:02;;;;;;;28.77;13.95;;;5.40;99.90;;;;;;6746484;88;20196;-77
2021/11/11 18:01:10;;;;;;;33.42;17.67;;;5.10;99.90;;;;;;6746165;88;20712;-80
2021/11/11 18:11:15;;;;;;;35.22;16.95;;;4.80;99.90;;;;;;6750336;88;20856;-79
2021/11/11 18:21:16;;;;;;;31.83;15.20;;;4.50;99.90;;;;;;6757136;88;20184;-78
2021/11/11 18:31:23;;;;;;;34.40;16.80;;;4.30;99.90;;;;;;6777423;87;20183;-76
2021/11/11 18:41:24;;;;;;;31.35;15.90;;;4.00;99.90;;;;;;6781908;87;21570;-81
2021/11/11 18:51:26;;;;;;;30.35;15.32;;;3.80;99.90;;;;;;6751293;87;20179;-80
2021/11/11 19:01:27;;;;;;;32.65;14.80;;;3.60;99.90;;;;;;6697257;88;20173;-78
2021/11/11 19:11:32;;;;;;;37.72;14.82;;;3.40;99.90;;;;;;6695838;88;20188;-79
2021/11/11 19:21:33;;;;;;;33.92;15.85;;;3.30;99.90;;;;;;6697086;88;20195;-80
2021/11/11 19:31:35;;;;;;;30.33;14.73;;;3.20;99.90;;;;;;6729700;88;20169;-78
2021/11/11 19:52:07;;;;;;;34.97;16.30;;;2.80;99.90;;;;;;6696930;89;21192;-79
2021/11/11 20:02:23;;;;;;;40.42;16.65;;;2.70;99.90;;;;;;6696870;88;20450;-79
2021/11/11 20:12:40;;;;;;;36.65;16.92;;;2.60;99.90;;;;;;6696278;88;20171;-78
2021/11/11 20:43:26;;;;;;;38.40;15.55;;;2.30;99.90;;;;;;6742656;88;20746;-79
2021/11/11 20:53:36;;;;;;;38.75;15.13;;;2.20;99.90;;;;;;6745735;88;20699;-78
2021/11/11 21:03:44;;;;;;;38.47;16.62;;;2.40;99.90;;;;;;6751584;87;20781;-80
2021/11/11 21:23:55;;;;;;;38.72;16.83;;;2.00;99.90;;;;;;6755718;88;20651;-78
2021/11/11 21:34:00;;;;;;;33.20;13.82;;;1.90;99.90;;;;;;6756504;87;20192;-79
2021/11/11 21:44:01;;;;;;;29.25;12.52;;;1.80;99.90;;;;;;6763363;87;20754;-79
2021/11/11 21:54:08;;;;;;;43.25;13.77;;;1.80;99.90;;;;;;6760846;88;20241;-79
2021/11/11 22:25:04;;;;;;;94.55;15.65;;;1.60;99.90;;;;;;6752101;88;20222;-80
2021/11/11 22:35:05;;;;;;;40.93;10.80;;;1.60;99.90;;;;;;6714004;88;20335;-79
2021/11/11 22:45:07;;;;;;;55.75;16.27;;;1.50;99.90;;;;;;6697651;89;20157;-79
2021/11/11 22:55:17;;;;;;;80.20;17.67;;;1.50;99.90;;;;;;6720886;88;20208;-79
2021/11/11 23:26:19;;;;;;;67.47;17.62;;;1.10;99.90;;;;;;6750942;88;20228;-79
2021/11/11 23:36:20;;;;;;;79.17;15.90;;;1.30;99.90;;;;;;6750902;88;20276;-79
2021/11/11 23:46:28;;;;;;;59.35;14.68;;;1.20;99.90;;;;;;6750745;88;20982;-79
